This is the latest recevied weather packets stored in our database for station/object IR1ZYZ-3. If no packets are shown the sender has not sent any weather packets the latest 10 day(s).
| Time | Temp. | Humidity | Pressure | Rain* | Wind** | Luminosity | Snow |
|---|---|---|---|---|---|---|---|
| 1777503799 | 15.56° C | 79% | 1017.4 hPa | - | - | - | - |
| 1777503194 | 15.56° C | 81% | 1017.4 hPa | - | - | - | - |
| 1777502589 | 15° C | 87% | 1017.7 hPa | - | - | - | - |
| 1777501983 | 15° C | 86% | 1017.6 hPa | - | - | - | - |
| 1777501378 | 15° C | 81% | 1017.4 hPa | - | - | - | - |
| 1777500773 | 15° C | 82% | 1017.4 hPa | - | - | - | - |
| 1777500168 | 15° C | 81% | 1017.3 hPa | - | - | - | - |
| 1777499562 | 14.44° C | 80% | 1017.3 hPa | - | - | - | - |
| 1777498957 | 14.44° C | 79% | 1017.3 hPa | - | - | - | - |
| 1777498352 | 13.89° C | 78% | 1017.2 hPa | - | - | - | - |
| 1777497746 | 13.89° C | 75% | 1017.2 hPa | - | - | - | - |
| 1777497141 | 13.89° C | 73% | 1017.2 hPa | - | - | - | - |
| 1777496536 | 13.89° C | 72% | 1017.2 hPa | - | - | - | - |
| 1777495931 | 13.89° C | 73% | 1017.2 hPa | - | - | - | - |
| 1777495325 | 13.89° C | 73% | 1017.2 hPa | - | - | - | - |
| 1777494720 | 13.89° C | 71% | 1017.1 hPa | - | - | - | - |
| 1777494115 | 14.44° C | 68% | 1016.8 hPa | - | - | - | - |
| 1777493510 | 14.44° C | 67% | 1016.7 hPa | - | - | - | - |
| 1777492904 | 14.44° C | 66% | 1016.7 hPa | - | - | - | - |
| 1777492299 | 14.44° C | 65% | 1016.5 hPa | - | - | - | - |
| 1777491694 | 15° C | 63% | 1016.3 hPa | - | - | - | - |
| 1777491089 | 15° C | 62% | 1016.1 hPa | - | - | - | - |
| 1777490491 | 15.56° C | 59% | 1016.1 hPa | - | - | - | - |
| 1777490484 | 15.56° C | 59% | 1016.1 hPa | - | - | - | - |
| 1777489878 | 15.56° C | 58% | 1015.8 hPa | - | - | - | - |
* Rain since midnight (hover to see other rain measurements)
** Current wind speed in m/s (hover to see current wind gust speed)